createdAt,value
2017-09-28T00:00:08.786Z,0
2017-09-28T00:01:19.046Z,0
2017-09-28T00:02:28.989Z,0
2017-09-28T00:03:39.259Z,0
2017-09-28T00:04:49.207Z,0
2017-09-28T00:05:59.473Z,0
2017-09-28T00:07:09.734Z,0
2017-09-28T00:08:19.997Z,0
2017-09-28T00:09:30.266Z,0
2017-09-28T00:10:40.526Z,0
2017-09-28T00:11:50.470Z,0
2017-09-28T00:13:00.736Z,0
2017-09-28T00:14:10.681Z,0
2017-09-28T00:15:20.947Z,0
2017-09-28T00:16:31.207Z,0
2017-09-28T00:17:41.469Z,0
2017-09-28T00:18:51.411Z,0
2017-09-28T00:20:01.354Z,0
2017-09-28T00:21:11.617Z,0
2017-09-28T00:22:21.884Z,0
2017-09-28T00:23:32.150Z,0
2017-09-28T00:24:42.417Z,0
2017-09-28T00:25:52.365Z,0
2017-09-28T00:27:02.641Z,0
2017-09-28T00:28:12.600Z,0
2017-09-28T00:29:22.557Z,0
2017-09-28T00:30:32.512Z,0
2017-09-28T00:31:42.473Z,0
2017-09-28T00:32:52.751Z,0
2017-09-28T00:34:03.027Z,0
2017-09-28T00:35:13.305Z,0
2017-09-28T00:36:23.585Z,0
2017-09-28T00:37:33.867Z,0
2017-09-28T00:38:44.145Z,0
2017-09-28T00:39:54.109Z,0
2017-09-28T00:41:04.065Z,0
2017-09-28T00:42:14.345Z,0
2017-09-28T00:43:24.618Z,0
2017-09-28T00:44:34.573Z,0
2017-09-28T00:45:44.852Z,0
2017-09-28T00:46:55.127Z,0
2017-09-28T00:48:05.076Z,0
2017-09-28T00:49:15.347Z,0
2017-09-28T00:50:25.627Z,0
2017-09-28T00:51:35.899Z,0
2017-09-28T00:52:45.880Z,0
2017-09-28T00:53:55.835Z,0
2017-09-28T00:55:06.105Z,0
2017-09-28T00:56:16.385Z,0
2017-09-28T00:57:26.654Z,0
2017-09-28T00:58:36.926Z,0
2017-09-28T00:59:46.881Z,0
2017-09-28T01:00:57.163Z,0
2017-09-28T01:02:07.124Z,0
2017-09-28T01:03:17.399Z,0
2017-09-28T01:04:27.352Z,0
2017-09-28T01:05:37.301Z,0
2017-09-28T01:06:47.577Z,0
2017-09-28T01:07:57.859Z,0
2017-09-28T01:09:08.141Z,0
2017-09-28T01:10:18.420Z,0
2017-09-28T01:11:28.694Z,0
2017-09-28T01:12:38.977Z,0
2017-09-28T01:13:49.245Z,0
2017-09-28T01:14:59.517Z,0
2017-09-28T01:16:09.466Z,0
2017-09-28T01:17:19.422Z,0
2017-09-28T01:18:29.694Z,0
2017-09-28T01:19:39.992Z,0
2017-09-28T01:20:50.263Z,0
2017-09-28T01:22:00.226Z,0
2017-09-28T01:23:10.179Z,0
2017-09-28T01:24:20.452Z,0
2017-09-28T01:25:30.728Z,0
2017-09-28T01:26:41.002Z,0
2017-09-28T01:27:50.957Z,0
2017-09-28T01:29:01.230Z,0
2017-09-28T01:30:11.188Z,0
2017-09-28T01:31:21.461Z,0
2017-09-28T01:32:31.422Z,0
2017-09-28T01:33:41.373Z,0
2017-09-28T01:34:51.338Z,0
2017-09-28T01:36:01.618Z,0
2017-09-28T01:37:11.900Z,0
2017-09-28T01:38:22.181Z,0
2017-09-28T01:39:32.452Z,0
2017-09-28T01:40:42.725Z,0
2017-09-28T01:41:52.358Z,0
2017-09-28T01:43:02.940Z,0
2017-09-28T01:44:13.213Z,0
2017-09-28T01:45:23.496Z,0
2017-09-28T01:46:33.769Z,0
2017-09-28T01:47:44.041Z,0
2017-09-28T01:48:54.314Z,0
2017-09-28T01:50:04.269Z,0
2017-09-28T01:51:14.553Z,0
2017-09-28T01:52:24.830Z,0
2017-09-28T01:53:34.782Z,0
2017-09-28T01:54:44.739Z,0
2017-09-28T01:55:55.016Z,0
2017-09-28T01:57:04.962Z,0
2017-09-28T01:58:15.245Z,0
2017-09-28T01:59:25.202Z,0
2017-09-28T02:00:35.475Z,0
2017-09-28T02:01:45.747Z,0
2017-09-28T02:02:55.700Z,0
2017-09-28T02:04:05.980Z,0
2017-09-28T02:05:16.256Z,0
2017-09-28T02:06:26.208Z,0
2017-09-28T02:07:36.486Z,0
2017-09-28T02:08:46.765Z,0
2017-09-28T02:09:56.718Z,0
2017-09-28T02:11:07.002Z,0
2017-09-28T02:12:17.380Z,0
2017-09-28T02:13:27.654Z,0
2017-09-28T02:14:37.924Z,0
2017-09-28T02:15:48.202Z,0
2017-09-28T02:16:58.473Z,0
2017-09-28T02:18:09.790Z,0
2017-09-28T02:19:20.065Z,0
2017-09-28T02:20:30.348Z,0
2017-09-28T02:21:40.627Z,0
2017-09-28T02:22:50.576Z,0
2017-09-28T02:24:00.857Z,0
2017-09-28T02:25:11.135Z,0
2017-09-28T02:26:21.409Z,0
2017-09-28T02:27:31.044Z,0
2017-09-28T02:28:41.319Z,0
2017-09-28T02:29:51.592Z,0
2017-09-28T02:31:01.874Z,0
2017-09-28T02:32:11.826Z,0
2017-09-28T02:33:21.785Z,0
2017-09-28T02:34:31.419Z,0
2017-09-28T02:35:41.694Z,0
2017-09-28T02:36:52.002Z,0
2017-09-28T02:38:02.280Z,0
2017-09-28T02:39:12.252Z,0
2017-09-28T02:40:22.536Z,0
2017-09-28T02:41:32.816Z,0
2017-09-28T02:42:43.090Z,0
2017-09-28T02:43:53.361Z,0
2017-09-28T02:45:03.638Z,0
2017-09-28T02:46:13.913Z,0
2017-09-28T02:47:24.189Z,0
2017-09-28T02:48:34.462Z,0
2017-09-28T02:49:44.103Z,0
2017-09-28T02:50:54.408Z,0
2017-09-28T02:52:04.367Z,0
2017-09-28T02:53:14.656Z,0
2017-09-28T02:54:24.935Z,0
2017-09-28T02:55:34.896Z,0
2017-09-28T02:56:44.890Z,0
2017-09-28T02:57:54.839Z,0
2017-09-28T02:59:05.132Z,0
2017-09-28T03:00:15.420Z,0
2017-09-28T03:01:25.367Z,0
2017-09-28T03:02:35.647Z,0
2017-09-28T03:03:45.935Z,0
2017-09-28T03:04:56.257Z,0
2017-09-28T03:06:06.539Z,0
2017-09-28T03:07:16.812Z,0
2017-09-28T03:08:26.442Z,0
2017-09-28T03:09:36.402Z,0
2017-09-28T03:10:46.676Z,0
2017-09-28T03:11:56.676Z,0
2017-09-28T03:13:06.952Z,0
2017-09-28T03:14:16.907Z,0
2017-09-28T03:15:26.860Z,0
2017-09-28T03:16:36.488Z,0
2017-09-28T03:17:46.758Z,0
2017-09-28T03:18:56.388Z,0
2017-09-28T03:20:06.669Z,0
2017-09-28T03:21:16.942Z,0
2017-09-28T03:22:27.219Z,0
2017-09-28T03:23:37.505Z,0
2017-09-28T03:24:47.787Z,0
2017-09-28T03:25:58.072Z,0
2017-09-28T03:27:07.385Z,0
2017-09-28T03:28:17.669Z,0
2017-09-28T03:29:27.980Z,0
2017-09-28T03:30:38.266Z,0
2017-09-28T03:31:48.546Z,0
2017-09-28T03:32:58.498Z,0
2017-09-28T03:34:08.449Z,0
2017-09-28T03:35:18.404Z,0
2017-09-28T03:36:28.713Z,0
2017-09-28T03:37:38.995Z,0
2017-09-28T03:38:49.271Z,0
2017-09-28T03:39:59.548Z,0
2017-09-28T03:41:09.824Z,0
2017-09-28T03:42:20.097Z,0
2017-09-28T03:43:29.723Z,0
2017-09-28T03:44:39.998Z,0
2017-09-28T03:45:49.953Z,0
2017-09-28T03:47:00.240Z,0
2017-09-28T03:48:10.194Z,0
2017-09-28T03:49:20.475Z,0
2017-09-28T03:50:30.753Z,0
2017-09-28T03:51:41.029Z,0
2017-09-28T03:52:51.314Z,0
2017-09-28T03:54:01.281Z,0
2017-09-28T03:55:11.585Z,0
2017-09-28T03:56:21.859Z,0
2017-09-28T03:57:32.138Z,0
2017-09-28T03:58:42.104Z,0
2017-09-28T03:59:52.375Z,0
2017-09-28T04:01:02.659Z,0
2017-09-28T04:02:12.624Z,0
2017-09-28T04:03:24.900Z,0
2017-09-28T04:04:35.173Z,0
2017-09-28T04:05:45.455Z,0
2017-09-28T04:06:55.409Z,0
2017-09-28T04:08:05.040Z,0
2017-09-28T04:09:14.990Z,0
2017-09-28T04:10:24.942Z,0
2017-09-28T04:11:35.225Z,0
2017-09-28T04:12:45.177Z,0
2017-09-28T04:13:55.465Z,0
2017-09-28T04:15:05.419Z,0
2017-09-28T04:16:15.694Z,0
2017-09-28T04:17:25.979Z,0
2017-09-28T04:18:36.258Z,0
2017-09-28T04:19:46.531Z,0
2017-09-28T04:20:56.801Z,0
2017-09-28T04:22:06.429Z,0
2017-09-28T04:23:16.704Z,0
2017-09-28T04:24:26.977Z,0
2017-09-28T04:25:36.935Z,0
2017-09-28T04:26:47.225Z,0
2017-09-28T04:27:57.174Z,0
2017-09-28T04:29:06.806Z,0
2017-09-28T04:30:16.757Z,0
2017-09-28T04:31:27.030Z,0
2017-09-28T04:32:36.976Z,0
2017-09-28T04:33:47.250Z,0
2017-09-28T04:34:56.877Z,0
2017-09-28T04:36:07.152Z,0
2017-09-28T04:37:17.106Z,0
2017-09-28T04:38:27.385Z,0
2017-09-28T04:39:37.340Z,0
2017-09-28T04:40:47.621Z,0
2017-09-28T04:41:57.581Z,0
2017-09-28T04:43:07.852Z,0
2017-09-28T04:44:17.804Z,0
2017-09-28T04:45:27.776Z,0
2017-09-28T04:46:37.733Z,0
2017-09-28T04:47:47.685Z,0
2017-09-28T04:48:57.963Z,0
2017-09-28T04:50:07.593Z,0
2017-09-28T04:51:17.228Z,0
2017-09-28T04:52:27.184Z,0
2017-09-28T04:53:37.137Z,0
2017-09-28T04:54:47.084Z,0
2017-09-28T04:55:57.351Z,0
2017-09-28T04:57:07.622Z,0
2017-09-28T04:58:17.572Z,0
2017-09-28T04:59:27.529Z,0
2017-09-28T05:00:37.812Z,0
2017-09-28T05:01:48.098Z,0
2017-09-28T05:02:58.371Z,0
2017-09-28T05:04:08.652Z,0
2017-09-28T05:05:18.923Z,0
2017-09-28T05:06:29.213Z,0
2017-09-28T05:07:39.173Z,0
2017-09-28T05:08:49.451Z,0
2017-09-28T05:09:59.411Z,0
2017-09-28T05:11:09.692Z,5
2017-09-28T05:12:19.969Z,5
2017-09-28T05:13:30.246Z,5
2017-09-28T05:14:40.538Z,5
2017-09-28T05:15:50.488Z,5
2017-09-28T05:17:00.771Z,5
2017-09-28T05:18:10.727Z,5
2017-09-28T05:19:21.007Z,5
2017-09-28T05:20:31.281Z,5
2017-09-28T05:21:40.954Z,10
2017-09-28T05:22:50.904Z,10
2017-09-28T05:24:01.189Z,10
2017-09-28T05:25:11.147Z,10
2017-09-28T05:26:21.425Z,10
2017-09-28T05:27:31.704Z,10
2017-09-28T05:28:41.979Z,10
2017-09-28T05:29:52.251Z,15
2017-09-28T05:31:02.202Z,15
2017-09-28T05:32:12.481Z,15
2017-09-28T05:33:22.761Z,15
2017-09-28T05:34:32.716Z,15
2017-09-28T05:35:42.675Z,15
2017-09-28T05:36:52.631Z,15
2017-09-28T05:38:02.908Z,20
2017-09-28T05:39:12.543Z,20
2017-09-28T05:40:22.499Z,25
2017-09-28T05:41:32.770Z,25
2017-09-28T05:42:43.044Z,25
2017-09-28T05:43:53.318Z,25
2017-09-28T05:45:03.271Z,25
2017-09-28T05:46:13.546Z,25
2017-09-28T05:47:23.503Z,25
2017-09-28T05:48:33.790Z,25
2017-09-28T05:49:43.751Z,30
2017-09-28T05:50:53.390Z,30
2017-09-28T05:52:03.672Z,30
2017-09-28T05:53:13.639Z,30
2017-09-28T05:54:23.914Z,35
2017-09-28T05:55:34.204Z,35
2017-09-28T05:56:44.488Z,40
2017-09-28T05:57:54.759Z,45
2017-09-28T05:59:05.037Z,50
2017-09-28T06:00:14.671Z,50
2017-09-28T06:01:24.632Z,55
2017-09-28T06:02:34.914Z,60
2017-09-28T06:03:44.873Z,60
2017-09-28T06:04:55.149Z,60
2017-09-28T06:06:05.101Z,65
2017-09-28T06:07:15.379Z,65
2017-09-28T06:08:25.703Z,65
2017-09-28T06:09:35.658Z,65
2017-09-28T06:10:45.933Z,75
2017-09-28T06:11:55.890Z,85
2017-09-28T06:13:05.840Z,80
2017-09-28T06:14:16.128Z,80
2017-09-28T06:15:26.420Z,80
2017-09-28T06:16:36.377Z,80
2017-09-28T06:17:46.435Z,80
2017-09-28T06:18:56.710Z,80
2017-09-28T06:20:06.994Z,80
2017-09-28T06:21:17.276Z,90
2017-09-28T06:22:27.565Z,90
2017-09-28T06:23:37.843Z,90
2017-09-28T06:24:47.797Z,90
2017-09-28T06:25:57.426Z,95
2017-09-28T06:27:07.380Z,100
2017-09-28T06:28:17.337Z,95
2017-09-28T06:29:27.611Z,95
2017-09-28T06:30:37.893Z,95
2017-09-28T06:31:47.845Z,95
2017-09-28T06:32:58.126Z,95
2017-09-28T06:34:08.400Z,95
2017-09-28T06:35:18.676Z,95
2017-09-28T06:36:28.631Z,100
2017-09-28T06:37:38.910Z,100
2017-09-28T06:38:49.189Z,100
2017-09-28T06:39:59.465Z,105
2017-09-28T06:41:09.746Z,110
2017-09-28T06:42:19.373Z,105
2017-09-28T06:43:29.335Z,105
2017-09-28T06:44:39.296Z,110
2017-09-28T06:45:49.254Z,110
2017-09-28T06:46:59.527Z,115
2017-09-28T06:48:09.811Z,120
2017-09-28T06:49:19.759Z,115
2017-09-28T06:50:30.031Z,115
2017-09-28T06:51:40.303Z,115
2017-09-28T06:52:50.580Z,115
2017-09-28T06:54:00.545Z,120
2017-09-28T06:55:10.822Z,110
2017-09-28T06:56:20.773Z,105
2017-09-28T06:57:30.729Z,105
2017-09-28T06:58:40.693Z,115
2017-09-28T06:59:50.966Z,115
2017-09-28T07:01:00.926Z,110
2017-09-28T07:02:10.884Z,105
2017-09-28T07:03:20.833Z,100
2017-09-28T07:04:31.111Z,110
2017-09-28T07:05:40.749Z,100
2017-09-28T07:06:51.032Z,105
2017-09-28T07:08:01.312Z,110
2017-09-28T07:09:10.945Z,105
2017-09-28T07:10:21.218Z,100
2017-09-28T07:11:31.494Z,85
2017-09-28T07:12:41.442Z,85
2017-09-28T07:13:51.723Z,105
2017-09-28T07:15:02.004Z,110
2017-09-28T07:16:11.960Z,110
2017-09-28T07:17:21.911Z,110
2017-09-28T07:18:32.191Z,105
2017-09-28T07:19:42.151Z,95
2017-09-28T07:20:52.100Z,95
2017-09-28T07:22:02.059Z,105
2017-09-28T07:23:12.016Z,85
2017-09-28T07:24:22.288Z,105
2017-09-28T07:25:32.563Z,95
2017-09-28T07:26:42.836Z,90
2017-09-28T07:27:52.790Z,80
2017-09-28T07:29:02.753Z,70
2017-09-28T07:30:13.029Z,80
2017-09-28T07:31:23.301Z,100
2017-09-28T07:32:33.255Z,100
2017-09-28T07:33:43.530Z,100
2017-09-28T07:34:53.810Z,90
2017-09-28T07:36:03.438Z,85
2017-09-28T07:37:13.710Z,85
2017-09-28T07:38:23.986Z,75
2017-09-28T07:39:33.618Z,70
2017-09-28T07:40:43.893Z,75
2017-09-28T07:41:53.854Z,75
2017-09-28T07:43:03.491Z,70
2017-09-28T07:44:13.448Z,70
2017-09-28T07:45:23.732Z,65
2017-09-28T07:46:34.011Z,70
2017-09-28T07:47:44.278Z,80
2017-09-28T07:48:54.562Z,85
2017-09-28T07:50:04.841Z,85
2017-09-28T07:51:15.114Z,75
2017-09-28T07:52:25.394Z,65
2017-09-28T07:53:35.350Z,70
2017-09-28T07:54:45.619Z,65
2017-09-28T07:55:55.572Z,65
2017-09-28T07:57:05.560Z,65
2017-09-28T07:58:15.529Z,65
2017-09-28T07:59:25.159Z,60
2017-09-28T08:00:35.112Z,60
2017-09-28T08:01:45.392Z,60
2017-09-28T08:02:55.351Z,65
2017-09-28T08:04:05.307Z,65
2017-09-28T08:05:15.257Z,65
2017-09-28T08:06:25.532Z,65
2017-09-28T08:07:34.841Z,70
2017-09-28T08:08:45.424Z,70
2017-09-28T08:09:55.393Z,80
2017-09-28T08:11:05.669Z,90
2017-09-28T08:12:15.630Z,95
2017-09-28T08:13:25.592Z,95
2017-09-28T08:14:37.969Z,105
2017-09-28T08:15:47.926Z,100
2017-09-28T08:16:58.242Z,95
2017-09-28T08:18:08.201Z,105
2017-09-28T08:19:18.152Z,110
2017-09-28T08:20:28.405Z,115
2017-09-28T08:21:38.682Z,110
2017-09-28T08:22:48.637Z,110
2017-09-28T08:23:58.909Z,110
2017-09-28T08:25:08.868Z,110
2017-09-28T08:26:18.956Z,110
2017-09-28T08:27:29.254Z,110
2017-09-28T08:28:39.569Z,110
2017-09-28T08:29:49.240Z,100
2017-09-28T08:30:58.943Z,95
2017-09-28T08:32:10.728Z,90
2017-09-28T08:33:20.997Z,80
2017-09-28T08:34:31.272Z,80
2017-09-28T08:35:41.227Z,80
2017-09-28T08:36:51.508Z,80
2017-09-28T08:38:01.561Z,85
2017-09-28T08:39:11.525Z,90
2017-09-28T08:40:21.479Z,95
2017-09-28T08:41:31.753Z,90
2017-09-28T08:42:42.033Z,85
2017-09-28T08:43:52.558Z,80
2017-09-28T08:45:02.838Z,80
2017-09-28T08:46:12.802Z,75
2017-09-28T08:47:23.085Z,75
2017-09-28T08:48:32.710Z,80
2017-09-28T08:49:42.761Z,80
2017-09-28T08:50:52.721Z,90
2017-09-28T08:52:02.683Z,110
2017-09-28T08:53:12.957Z,105
2017-09-28T08:54:23.230Z,105
2017-09-28T08:55:33.606Z,90
2017-09-28T08:56:43.234Z,95
2017-09-28T08:57:52.866Z,100
2017-09-28T08:59:02.500Z,105
2017-09-28T09:00:12.784Z,105
2017-09-28T09:01:22.838Z,115
2017-09-28T09:02:33.114Z,110
2017-09-28T09:03:43.069Z,100
2017-09-28T09:04:53.349Z,95
2017-09-28T09:06:02.980Z,85
2017-09-28T09:07:13.237Z,85
2017-09-28T09:08:23.514Z,90
2017-09-28T09:09:33.792Z,90
2017-09-28T09:10:44.071Z,85
2017-09-28T09:11:54.346Z,95
2017-09-28T09:13:04.732Z,100
2017-09-28T09:14:14.692Z,95
2017-09-28T09:15:24.329Z,100
2017-09-28T09:16:34.595Z,105
2017-09-28T09:17:44.885Z,115
2017-09-28T09:18:54.937Z,110
2017-09-28T09:20:05.214Z,105
2017-09-28T09:21:15.488Z,110
2017-09-28T09:22:25.442Z,130
2017-09-28T09:23:35.404Z,150
2017-09-28T09:24:45.614Z,195
2017-09-28T09:25:55.570Z,160
2017-09-28T09:27:05.847Z,125
2017-09-28T09:28:16.125Z,130
2017-09-28T09:29:26.404Z,270
2017-09-28T09:30:36.838Z,245
2017-09-28T09:31:46.793Z,255
2017-09-28T09:32:56.425Z,245
2017-09-28T09:34:06.380Z,215
2017-09-28T09:35:16.333Z,270
2017-09-28T09:36:26.388Z,220
2017-09-28T09:37:36.019Z,220
2017-09-28T09:38:46.306Z,205
2017-09-28T09:39:56.262Z,230
2017-09-28T09:41:05.892Z,285
2017-09-28T09:42:15.849Z,255
2017-09-28T09:43:26.123Z,230
2017-09-28T09:44:36.421Z,240
2017-09-28T09:45:46.692Z,295
2017-09-28T09:46:56.998Z,305
2017-09-28T09:48:06.955Z,240
2017-09-28T09:49:17.238Z,220
2017-09-28T09:50:27.522Z,195
2017-09-28T09:51:37.811Z,190
2017-09-28T09:52:48.105Z,215
2017-09-28T09:53:58.386Z,205
2017-09-28T09:55:08.670Z,200
2017-09-28T09:56:18.620Z,230
2017-09-28T09:57:28.892Z,200
2017-09-28T09:58:39.171Z,175
2017-09-28T09:59:49.120Z,150
2017-09-28T10:00:59.395Z,170
2017-09-28T10:02:09.360Z,180
2017-09-28T10:03:19.632Z,180
2017-09-28T10:04:29.913Z,180
2017-09-28T10:05:39.866Z,175
2017-09-28T10:06:49.815Z,180
2017-09-28T10:07:59.767Z,195
2017-09-28T10:09:09.401Z,160
2017-09-28T10:10:19.691Z,145
2017-09-28T10:11:29.654Z,160
2017-09-28T10:12:39.928Z,145
2017-09-28T10:13:50.210Z,150
2017-09-28T10:15:00.160Z,135
2017-09-28T10:16:10.116Z,135
2017-09-28T10:17:20.067Z,130
2017-09-28T10:18:30.338Z,125
2017-09-28T10:19:40.331Z,120
2017-09-28T10:20:49.971Z,120
2017-09-28T10:21:59.926Z,130
2017-09-28T10:23:10.201Z,105
2017-09-28T10:24:20.478Z,90
2017-09-28T10:25:30.783Z,95
2017-09-28T10:26:40.424Z,100
2017-09-28T10:27:50.375Z,100
2017-09-28T10:29:00.655Z,95
2017-09-28T10:30:10.931Z,90
2017-09-28T10:31:20.881Z,90
2017-09-28T10:32:30.515Z,85
2017-09-28T10:33:40.466Z,80
2017-09-28T10:34:50.419Z,75
2017-09-28T10:36:00.694Z,80
2017-09-28T10:37:10.672Z,90
2017-09-28T10:38:20.948Z,95
2017-09-28T10:39:31.224Z,85
2017-09-28T10:40:41.183Z,90
2017-09-28T10:41:51.147Z,90
2017-09-28T10:43:00.779Z,95
2017-09-28T10:44:10.731Z,90
2017-09-28T10:45:20.683Z,90
2017-09-28T10:46:30.642Z,135
2017-09-28T10:47:40.599Z,120
2017-09-28T10:48:50.881Z,100
2017-09-28T10:50:01.159Z,100
2017-09-28T10:51:11.439Z,100
2017-09-28T10:52:21.737Z,95
2017-09-28T10:53:31.691Z,90
2017-09-28T10:54:41.638Z,90
2017-09-28T10:55:51.926Z,95
2017-09-28T10:57:02.202Z,95
2017-09-28T10:58:12.483Z,90
2017-09-28T10:59:21.800Z,85
2017-09-28T11:00:32.071Z,85
2017-09-28T11:01:42.037Z,85
2017-09-28T11:02:52.320Z,85
2017-09-28T11:04:02.600Z,80
2017-09-28T11:05:12.877Z,80
2017-09-28T11:06:22.831Z,80
2017-09-28T11:07:33.107Z,90
2017-09-28T11:08:43.067Z,100
2017-09-28T11:09:52.705Z,115
2017-09-28T11:11:02.982Z,125
2017-09-28T11:12:13.266Z,130
2017-09-28T11:13:23.543Z,125
2017-09-28T11:14:33.505Z,125
2017-09-28T11:15:43.784Z,120
2017-09-28T11:16:54.068Z,115
2017-09-28T11:18:03.708Z,115
2017-09-28T11:19:14.040Z,110
2017-09-28T11:20:23.997Z,105
2017-09-28T11:21:33.636Z,100
2017-09-28T11:22:42.791Z,105
2017-09-28T11:23:52.785Z,110
2017-09-28T11:25:03.062Z,120
2017-09-28T11:26:12.703Z,125
2017-09-28T11:27:22.013Z,125
2017-09-28T11:28:32.288Z,145
2017-09-28T11:29:42.251Z,135
2017-09-28T11:30:52.530Z,120
2017-09-28T11:32:02.508Z,100
2017-09-28T11:33:12.784Z,100
2017-09-28T11:34:22.739Z,100
2017-09-28T11:35:32.388Z,105
2017-09-28T11:36:42.659Z,100
2017-09-28T11:37:52.616Z,105
2017-09-28T11:39:02.894Z,100
2017-09-28T11:40:13.182Z,100
2017-09-28T11:41:23.145Z,110
2017-09-28T11:42:32.467Z,115
2017-09-28T11:43:42.100Z,125
2017-09-28T11:44:51.726Z,140
2017-09-28T11:46:01.359Z,150
2017-09-28T11:47:11.640Z,175
2017-09-28T11:48:21.910Z,200
2017-09-28T11:49:31.592Z,205
2017-09-28T11:50:41.581Z,195
2017-09-28T11:51:51.545Z,175
2017-09-28T11:53:00.848Z,175
2017-09-28T11:54:11.126Z,170
2017-09-28T11:55:20.794Z,160
2017-09-28T11:56:30.433Z,160
2017-09-28T11:57:40.707Z,155
2017-09-28T11:58:50.984Z,150
2017-09-28T12:00:00.615Z,135
2017-09-28T12:01:10.936Z,135
2017-09-28T12:02:21.215Z,145
2017-09-28T12:03:30.847Z,145
2017-09-28T12:04:40.810Z,130
2017-09-28T12:05:50.764Z,125
2017-09-28T12:07:01.037Z,125
2017-09-28T12:08:11.318Z,130
2017-09-28T12:09:21.600Z,130
2017-09-28T12:10:31.889Z,135
2017-09-28T12:11:42.164Z,145
2017-09-28T12:12:52.456Z,145
2017-09-28T12:14:02.413Z,135
2017-09-28T12:15:12.050Z,125
2017-09-28T12:16:22.002Z,120
2017-09-28T12:17:31.958Z,125
2017-09-28T12:18:41.913Z,120
2017-09-28T12:19:52.197Z,120
2017-09-28T12:21:01.832Z,125
2017-09-28T12:22:12.154Z,115
2017-09-28T12:23:22.121Z,115
2017-09-28T12:24:31.759Z,125
2017-09-28T12:25:41.071Z,145
2017-09-28T12:26:51.348Z,155
2017-09-28T12:28:01.625Z,160
2017-09-28T12:29:11.903Z,180
2017-09-28T12:30:21.530Z,180
2017-09-28T12:31:31.480Z,185
2017-09-28T12:32:41.755Z,210
2017-09-28T12:33:52.029Z,230
2017-09-28T12:35:01.665Z,230
2017-09-28T12:36:10.978Z,240
2017-09-28T12:37:21.259Z,300
2017-09-28T12:38:31.580Z,330
2017-09-28T12:39:41.870Z,330
2017-09-28T12:40:52.154Z,305
2017-09-28T12:42:02.112Z,295
2017-09-28T12:43:12.394Z,310
2017-09-28T12:44:22.674Z,340
2017-09-28T12:45:32.953Z,375
2017-09-28T12:46:42.586Z,375
2017-09-28T12:47:52.550Z,370
2017-09-28T12:49:02.184Z,355
2017-09-28T12:50:12.140Z,345
2017-09-28T12:51:22.101Z,340
2017-09-28T12:52:32.390Z,340
2017-09-28T12:53:42.343Z,340
2017-09-28T12:54:51.984Z,370
2017-09-28T12:56:01.941Z,430
2017-09-28T12:57:12.222Z,425
2017-09-28T12:58:22.508Z,415
2017-09-28T12:59:32.788Z,400
2017-09-28T13:00:42.754Z,385
2017-09-28T13:01:53.037Z,395
2017-09-28T13:03:02.997Z,405
2017-09-28T13:04:12.960Z,415
2017-09-28T13:05:22.921Z,390
2017-09-28T13:06:33.028Z,375
2017-09-28T13:07:42.663Z,365
2017-09-28T13:08:52.628Z,355
2017-09-28T13:10:02.589Z,355
2017-09-28T13:11:12.553Z,360
2017-09-28T13:12:24.520Z,370
2017-09-28T13:13:34.473Z,415
2017-09-28T13:14:44.429Z,470
2017-09-28T13:15:54.715Z,450
2017-09-28T13:17:04.023Z,355
2017-09-28T13:18:13.983Z,305
2017-09-28T13:19:23.615Z,270
2017-09-28T13:20:33.894Z,240
2017-09-28T13:21:44.202Z,235
2017-09-28T13:22:54.500Z,275
2017-09-28T13:24:04.779Z,330
2017-09-28T13:25:14.415Z,355
2017-09-28T13:26:24.690Z,370
2017-09-28T13:27:34.650Z,370
2017-09-28T13:28:44.932Z,325
2017-09-28T13:29:55.225Z,280
2017-09-28T13:31:05.043Z,235
2017-09-28T13:32:15.183Z,215
2017-09-28T13:33:25.352Z,225
2017-09-28T13:34:35.110Z,225
2017-09-28T13:35:45.397Z,210
2017-09-28T13:36:55.592Z,210
2017-09-28T13:38:05.102Z,215
2017-09-28T13:39:14.739Z,215
2017-09-28T13:40:25.014Z,220
2017-09-28T13:41:42.808Z,225
2017-09-28T13:42:53.085Z,200
2017-09-28T13:44:03.363Z,170
2017-09-28T13:45:13.640Z,140
2017-09-28T13:46:23.915Z,125
2017-09-28T13:47:36.446Z,145
2017-09-28T13:48:46.763Z,180
2017-09-28T13:49:56.716Z,215
2017-09-28T13:51:06.352Z,210
2017-09-28T13:52:16.407Z,190
2017-09-28T13:53:26.834Z,165
2017-09-28T13:54:37.111Z,150
2017-09-28T13:55:47.069Z,140
2017-09-28T13:56:57.359Z,140
2017-09-28T13:58:07.316Z,140
2017-09-28T13:59:20.823Z,135
2017-09-28T14:00:30.455Z,125
2017-09-28T14:01:40.741Z,115
2017-09-28T14:02:50.704Z,105
2017-09-28T14:04:00.665Z,110
2017-09-28T14:05:11.197Z,115
2017-09-28T14:06:21.146Z,120
2017-09-28T14:07:31.420Z,115
2017-09-28T14:08:41.699Z,110
2017-09-28T14:09:51.657Z,105
2017-09-28T14:11:01.614Z,110
2017-09-28T14:12:11.247Z,115
2017-09-28T14:13:21.526Z,120
2017-09-28T14:14:31.489Z,120
2017-09-28T14:15:41.938Z,115
2017-09-28T14:16:51.569Z,115
2017-09-28T14:18:01.226Z,115
2017-09-28T14:19:11.176Z,115
2017-09-28T14:20:21.131Z,115
2017-09-28T14:21:31.417Z,125
2017-09-28T14:22:41.373Z,120
2017-09-28T14:23:51.009Z,120
2017-09-28T14:25:01.286Z,115
2017-09-28T14:26:11.242Z,115
2017-09-28T14:27:21.520Z,110
2017-09-28T14:28:31.853Z,105
2017-09-28T14:29:41.820Z,110
2017-09-28T14:30:52.095Z,120
2017-09-28T14:32:01.731Z,110
2017-09-28T14:33:11.685Z,90
2017-09-28T14:34:21.643Z,80
2017-09-28T14:35:31.929Z,75
2017-09-28T14:36:41.892Z,85
2017-09-28T14:37:52.206Z,100
2017-09-28T14:39:02.484Z,110
2017-09-28T14:40:12.765Z,110
2017-09-28T14:41:23.045Z,110
2017-09-28T14:42:33.330Z,110
2017-09-28T14:43:43.288Z,110
2017-09-28T14:44:53.245Z,115
2017-09-28T14:46:03.525Z,115
2017-09-28T14:47:13.806Z,115
2017-09-28T14:48:23.444Z,115
2017-09-28T14:49:33.081Z,110
2017-09-28T14:50:43.053Z,110
2017-09-28T14:51:53.339Z,110
2017-09-28T14:53:03.613Z,115
2017-09-28T14:54:13.891Z,125
2017-09-28T14:55:23.856Z,125
2017-09-28T14:56:34.136Z,120
2017-09-28T14:57:44.417Z,110
2017-09-28T14:58:54.693Z,100
2017-09-28T15:00:04.986Z,95
2017-09-28T15:01:14.618Z,90
2017-09-28T15:02:24.897Z,90
2017-09-28T15:03:35.206Z,90
2017-09-28T15:04:45.509Z,80
2017-09-28T15:05:55.785Z,75
2017-09-28T15:07:04.779Z,75
2017-09-28T15:08:15.059Z,70
2017-09-28T15:09:25.017Z,70
2017-09-28T15:10:34.968Z,75
2017-09-28T15:11:44.925Z,80
2017-09-28T15:12:55.195Z,85
2017-09-28T15:14:05.151Z,95
2017-09-28T15:15:15.432Z,100
2017-09-28T15:16:25.382Z,95
2017-09-28T15:17:35.660Z,90
2017-09-28T15:18:45.936Z,90
2017-09-28T15:19:55.895Z,90
2017-09-28T15:21:06.180Z,95
2017-09-28T15:22:16.462Z,95
2017-09-28T15:23:26.097Z,90
2017-09-28T15:24:36.384Z,85
2017-09-28T15:25:46.339Z,85
2017-09-28T15:26:56.620Z,80
2017-09-28T15:28:06.892Z,70
2017-09-28T15:29:16.529Z,60
2017-09-28T15:30:26.493Z,60
2017-09-28T15:31:36.783Z,65
2017-09-28T15:32:46.424Z,65
2017-09-28T15:33:56.712Z,60
2017-09-28T15:35:06.988Z,60
2017-09-28T15:36:16.942Z,60
2017-09-28T15:37:26.898Z,60
2017-09-28T15:38:36.856Z,60
2017-09-28T15:39:46.817Z,60
2017-09-28T15:40:56.779Z,55
2017-09-28T15:42:06.736Z,55
2017-09-28T15:43:16.695Z,50
2017-09-28T15:44:26.327Z,45
2017-09-28T15:45:36.299Z,40
2017-09-28T15:46:45.938Z,35
2017-09-28T15:47:56.218Z,35
2017-09-28T15:49:06.181Z,35
2017-09-28T15:50:16.456Z,30
2017-09-28T15:51:26.087Z,25
2017-09-28T15:52:36.361Z,20
2017-09-28T15:53:46.643Z,20
2017-09-28T15:54:56.601Z,15
2017-09-28T15:56:06.239Z,10
2017-09-28T15:57:16.199Z,10
2017-09-28T15:58:25.829Z,10
2017-09-28T15:59:36.111Z,15
2017-09-28T16:00:45.740Z,20
2017-09-28T16:01:56.014Z,25
2017-09-28T16:03:06.290Z,25
2017-09-28T16:04:16.573Z,25
2017-09-28T16:05:26.848Z,25
2017-09-28T16:06:36.809Z,25
2017-09-28T16:07:47.081Z,25
2017-09-28T16:08:57.366Z,20
2017-09-28T16:10:07.329Z,20
2017-09-28T16:11:17.287Z,15
2017-09-28T16:12:27.241Z,15
2017-09-28T16:13:37.525Z,15
2017-09-28T16:14:47.804Z,15
2017-09-28T16:15:58.106Z,15
2017-09-28T16:17:08.389Z,10
2017-09-28T16:18:18.346Z,10
2017-09-28T16:19:28.300Z,10
2017-09-28T16:20:38.586Z,10
2017-09-28T16:21:48.219Z,10
2017-09-28T16:22:57.534Z,10
2017-09-28T16:24:07.812Z,10
2017-09-28T16:25:18.093Z,10
2017-09-28T16:26:27.729Z,10
2017-09-28T16:27:38.010Z,10
2017-09-28T16:28:47.644Z,5
2017-09-28T16:29:57.953Z,5
2017-09-28T16:31:07.907Z,5
2017-09-28T16:32:18.186Z,5
2017-09-28T16:33:28.469Z,5
2017-09-28T16:34:38.752Z,5
2017-09-28T16:35:48.389Z,5
2017-09-28T16:36:58.348Z,5
2017-09-28T16:38:08.302Z,5